Date,TemperatureHighF,TemperatureAvgF,TemperatureLowF,DewpointHighF,DewpointAvgF,DewpointLowF,HumidityHigh,HumidityAvg,HumidityLow,PressureMaxIn,PressureMinIn,WindSpeedMaxMPH,WindSpeedAvgMPH,GustSpeedMaxMPH,PrecipitationSumIn
2012-1-1,47.3,39.7,34.7,41.0,36.8,29.0,98,90,73,30.05,29.56,14,4,23,0.12
2012-1-2,36.8,29.8,20.6,31.0,23.2,13.0,91,76,64,29.78,29.58,13,6,19,0.00
2012-1-3,20.2,8.9,0.1,15.0,2.2,-6.0,88,74,65,30.24,29.78,9,3,15,0.00
2012-1-4,20.6,10.8,0.1,15.0,4.6,-6.0,84,76,68,30.25,29.89,5,2,9,0.00
2012-1-5,28.3,24.3,21.9,26.0,20.3,16.0,95,85,69,29.93,29.82,12,2,17,0.00
2012-1-6,45.5,32.6,24.3,32.0,27.0,22.0,94,81,58,29.86,29.66,8,2,12,0.05
2012-1-7,45.3,36.2,29.9,36.0,31.5,28.0,92,83,70,29.99,29.66,6,1,14,0.00
2012-1-8,34.0,27.1,14.7,29.0,20.5,12.0,92,76,64,30.35,29.99,8,3,13,0.00
2012-1-9,39.5,28.8,17.3,24.0,19.6,15.0,92,71,43,30.32,29.88,10,3,16,0.00
2012-1-10,38.6,34.6,32.1,35.0,26.5,20.0,93,73,58,30.00,29.78,10,3,13,0.02
2012-1-11,41.3,34.2,25.7,30.0,27.0,23.0,91,75,63,30.04,29.82,15,3,17,0.01
2012-1-12,35.2,34.1,32.5,34.0,32.0,29.0,95,91,83,29.82,29.41,22,8,29,0.72
2012-1-13,36.1,27.8,20.0,35.0,26.4,18.0,96,94,92,29.65,29.14,11,6,20,0.21
2012-1-14,23.6,10.5,-9.1,22.0,7.3,-13.0,95,87,81,30.22,29.65,11,4,13,0.00
2012-1-15,10.1,-3.6,-15.3,4.0,-7.7,-19.0,87,83,76,30.65,30.22,6,1,9,0.00
2012-1-16,26.2,9.4,-12.7,24.0,4.7,-16.0,91,81,68,30.65,30.04,9,2,13,0.00
2012-1-17,45.2,33.3,26.1,42.0,31.8,24.0,98,94,70,30.03,29.34,13,4,28,0.67
2012-1-18,38.4,18.6,2.6,29.0,12.2,0.0,92,77,62,30.21,29.52,15,5,27,0.00
2012-1-19,25.3,15.6,2.3,22.0,8.8,-1.0,89,75,52,30.21,29.87,12,3,23,0.00
2012-1-20,22.5,15.3,9.4,18.0,5.8,-2.0,90,67,47,30.33,29.93,10,3,17,0.00
2012-1-21,20.4,11.5,0.0,15.0,7.4,-3.0,92,83,62,30.40,30.16,10,2,14,0.00
2012-1-22,25.7,14.2,-1.7,21.0,8.4,-5.0,98,79,58,30.54,30.32,11,3,16,0.00
2012-1-23,45.6,35.7,25.8,44.0,32.7,21.0,97,88,81,30.32,29.75,11,4,17,0.19
2012-1-24,45.5,34.3,30.1,43.0,32.6,28.0,96,93,88,30.13,29.76,10,3,17,0.07
2012-1-25,30.2,28.9,27.7,28.0,25.5,25.0,93,87,82,30.32,30.13,11,3,19,0.01
2012-1-26,32.4,28.8,23.5,31.0,27.0,22.0,96,93,82,30.24,29.75,10,3,17,0.00
2012-1-27,40.4,34.4,31.5,40.0,33.6,31.0,98,96,93,29.85,29.30,15,4,23,0.74
2012-1-28,39.0,33.3,29.4,32.0,28.1,22.0,96,82,66,29.97,29.76,17,4,23,0.10
2012-1-29,33.4,29.6,25.8,27.0,21.9,18.0,99,73,62,30.05,29.91,9,3,18,0.00
2012-1-30,29.2,23.0,17.6,28.0,20.7,16.0,95,91,83,30.25,29.91,5,2,9,0.02
2012-1-31,48.9,36.6,22.2,36.0,29.9,21.0,94,78,55,30.18,29.88,5,1,11,0.21
2012-2-1,48.2,42.1,34.4,46.0,36.7,30.0,97,82,64,30.04,29.78,12,3,17,0.17
2012-2-2,34.2,28.5,21.3,30.0,23.6,15.0,88,82,75,30.36,30.03,7,2,11,0.00
2012-2-3,31.3,24.6,13.9,30.0,21.1,12.0,96,86,76,30.50,30.31,6,1,10,0.00
2012-2-4,31.8,28.3,16.9,31.0,23.9,13.0,97,84,70,30.32,30.18,7,2,9,0.02
2012-2-5,31.5,22.3,12.9,21.0,15.9,10.0,88,77,60,30.24,30.14,8,2,16,0.00
2012-2-6,46.7,35.6,24.2,30.0,25.1,20.0,92,67,45,30.14,29.90,12,3,15,0.00
2012-2-7,35.5,29.5,14.5,29.0,22.8,9.0,87,76,65,30.32,29.95,6,2,11,0.00
2012-2-8,29.8,20.7,10.7,21.0,15.2,8.0,90,79,64,30.33,30.12,4,0,7,0.00
2012-2-9,36.2,29.0,24.3,25.0,21.3,19.0,85,73,54,30.15,30.08,6,1,11,0.00
2012-2-10,34.4,27.4,18.6,24.0,20.1,15.0,89,74,61,30.11,29.90,6,1,10,0.00
2012-2-11,31.4,22.1,7.3,24.0,17.2,-2.0,94,81,63,29.90,29.70,15,3,17,0.00
2012-2-12,15.7,10.3,5.5,12.0,4.0,-4.0,90,76,62,29.95,29.83,9,2,16,0.00
2012-2-13,35.2,25.9,14.7,23.0,19.3,12.0,92,77,58,30.00,29.88,9,4,17,0.03
2012-2-14,35.5,29.0,19.0,31.0,22.4,12.0,100,77,50,30.05,29.99,5,0,10,0.00
2012-2-15,33.8,32.0,30.3,32.0,30.6,29.0,96,94,92,30.28,30.03,6,0,8,0.04
2012-2-16,35.9,30.7,22.7,33.0,29.0,21.0,97,93,79,30.27,29.92,5,1,9,0.25
2012-2-17,39.7,34.2,28.6,36.0,30.2,24.0,98,86,58,30.02,29.92,12,4,15,0.06
2012-2-18,33.4,28.8,20.6,30.0,26.4,19.0,97,91,69,30.11,29.86,5,1,8,0.08
2012-2-19,31.9,25.4,15.4,26.0,21.9,14.0,95,86,70,30.16,30.07,5,1,9,0.09
2012-2-20,33.2,23.5,15.0,20.0,16.7,12.0,92,76,51,30.36,30.11,8,1,13,0.00
2012-2-21,37.1,26.2,11.8,31.0,19.6,10.0,93,78,56,30.38,29.75,12,4,16,0.03
2012-2-22,48.7,39.3,35.1,37.0,32.9,29.0,96,79,51,29.74,29.39,15,4,24,0.15
2012-2-23,39.1,32.3,25.5,35.0,30.0,23.0,98,91,69,29.77,29.37,8,2,13,0.05
2012-2-24,37.0,32.5,25.9,34.0,29.2,24.0,96,88,71,29.74,29.28,16,6,25,0.40
2012-2-25,34.6,27.5,22.4,28.0,24.0,14.0,96,87,70,30.06,29.28,15,7,27,0.08
2012-2-26,29.7,20.0,10.9,14.0,10.3,6.0,85,67,42,30.45,30.07,9,2,15,0.01
2012-2-27,44.5,31.8,16.6,29.0,22.4,11.0,85,69,47,30.41,30.01,10,2,21,0.00
2012-2-28,33.4,29.8,24.8,29.0,21.6,18.0,90,72,57,30.43,30.20,11,4,19,0.01
2012-2-29,32.1,28.4,25.4,29.0,24.8,20.0,94,86,75,30.39,29.74,16,7,26,0.00
2012-3-1,32.8,31.6,30.1,32.0,30.1,29.0,97,94,87,29.94,29.64,23,6,25,0.16
2012-3-2,37.1,32.3,29.2,34.0,30.5,28.0,97,93,85,30.02,29.63,15,4,19,0.41
2012-3-3,48.8,39.4,33.7,39.0,29.6,21.0,93,71,37,29.62,29.38,16,7,26,0.06
2012-3-4,34.0,28.6,19.6,26.0,21.1,15.0,89,74,59,29.75,29.60,10,4,15,0.00
2012-3-5,22.4,15.9,9.3,17.0,9.8,4.0,90,77,64,30.41,29.75,12,3,16,0.00
2012-3-6,35.1,21.6,8.1,20.0,13.0,5.0,89,71,51,30.62,30.42,6,1,11,0.00
2012-3-7,62.7,45.1,26.6,33.0,26.4,18.0,75,51,31,30.42,30.15,18,4,22,0.00
2012-3-8,59.1,50.9,31.3,51.0,41.6,30.0,96,72,45,30.14,29.67,21,8,28,0.38
2012-3-9,33.3,28.8,22.4,30.0,26.1,21.0,96,90,76,30.24,29.91,10,4,17,0.11
2012-3-10,29.3,22.9,18.8,21.0,18.4,15.0,92,83,69,30.55,30.24,7,3,13,0.12
2012-3-11,56.3,40.5,20.8,38.0,27.1,16.0,84,61,43,30.42,30.25,5,1,9,0.00
2012-3-12,63.6,51.9,38.2,42.0,35.1,29.0,74,54,35,30.28,30.01,3,0,10,0.00
2012-3-13,64.8,56.0,49.5,56.0,46.6,40.0,96,72,56,30.00,29.87,8,2,16,0.00
2012-3-14,54.6,45.0,35.7,44.0,35.4,27.0,95,71,47,30.21,29.96,7,2,14,0.00
2012-3-15,50.8,41.9,34.4,44.0,37.6,30.0,92,84,73,30.27,30.13,7,2,10,0.00
2012-3-16,50.5,44.9,39.9,49.0,43.4,38.0,98,94,90,30.23,30.07,10,2,13,0.18
2012-3-17,63.2,49.2,41.5,49.0,44.2,41.0,98,84,55,30.32,30.23,8,2,10,0.00
2012-3-18,77.5,59.0,39.9,56.0,47.8,38.0,95,69,39,30.25,30.07,6,2,9,0.00
2012-3-19,77.3,62.4,49.1,59.0,53.7,47.0,95,75,45,30.18,30.07,8,1,9,0.02
2012-3-20,76.7,62.3,49.9,60.0,53.6,49.0,99,76,44,30.26,30.16,8,1,9,0.00
2012-3-21,79.5,61.5,45.6,58.0,50.9,44.0,96,72,37,30.31,30.16,7,1,13,0.00
2012-3-22,76.7,62.2,46.6,57.0,52.7,45.0,97,73,49,30.21,30.05,5,2,11,0.00
2012-3-23,71.2,61.6,54.2,54.0,43.6,34.0,91,57,29,30.16,30.04,11,3,16,0.00
2012-3-24,56.4,50.9,46.9,39.0,29.5,22.0,69,45,33,30.06,29.93,11,4,14,0.00
2012-3-25,49.1,44.1,40.0,45.0,41.5,37.0,97,90,73,29.94,29.77,8,2,11,0.12
2012-3-26,46.1,34.4,25.7,45.0,19.1,2.0,97,57,30,30.23,29.74,12,5,30,0.00
2012-3-27,41.2,28.5,18.7,18.0,9.2,2.0,62,45,30,30.39,30.09,11,3,13,0.00
2012-3-28,59.3,44.0,32.8,46.0,33.1,14.0,93,68,36,30.08,29.51,10,1,12,0.05
2012-3-29,41.7,37.5,33.7,40.0,32.8,22.0,96,83,62,30.05,29.65,8,3,13,0.03
2012-3-30,45.0,35.9,25.7,25.0,18.1,10.0,75,51,24,30.14,29.95,10,2,17,0.00
2012-3-31,41.4,37.1,32.1,33.0,30.7,23.0,94,78,56,29.97,29.89,11,3,15,0.02
2012-4-1,39.2,36.7,35.7,35.0,34.2,33.0,96,90,83,29.91,29.68,4,1,6,0.16
2012-4-2,50.0,39.4,32.0,34.0,26.2,17.0,96,64,29,29.92,29.70,20,4,21,0.00
2012-4-3,51.8,37.6,25.2,26.0,18.0,10.0,88,50,27,30.00,29.80,9,2,15,0.00
2012-4-4,52.0,40.4,28.6,38.0,26.4,16.0,83,59,39,29.80,29.61,12,2,25,0.01
2012-4-5,40.7,35.1,29.9,29.0,24.7,22.0,81,66,52,29.99,29.77,12,3,17,0.00
2012-4-6,47.6,35.9,25.5,28.0,23.5,18.0,91,64,32,30.10,29.99,14,3,23,0.00
2012-4-7,52.2,40.0,26.5,28.0,22.1,17.0,87,53,31,30.14,30.02,10,3,18,0.00
2012-4-8,53.2,41.4,24.8,38.0,27.6,21.0,88,61,35,30.01,29.67,16,3,28,0.00
2012-4-9,46.3,40.5,35.0,35.0,30.9,24.0,89,71,41,29.67,29.60,17,7,26,0.01
2012-4-10,46.9,41.1,32.0,34.0,29.9,25.0,87,66,51,29.79,29.59,14,4,19,0.00
2012-4-11,49.6,39.1,34.5,39.0,35.0,32.0,95,86,57,29.99,29.78,12,2,22,0.07
2012-4-12,51.2,41.5,32.1,39.0,34.0,27.0,97,77,53,30.16,29.99,9,2,16,0.00
2012-4-13,58.0,40.4,22.6,37.0,28.3,21.0,95,67,33,30.24,30.14,11,2,14,0.00
2012-4-14,65.0,48.2,26.3,44.0,32.1,24.0,92,59,29,30.19,29.96,6,1,10,0.00
2012-4-15,62.4,57.0,51.4,58.0,52.4,43.0,97,85,65,29.97,29.89,6,2,11,0.08
2012-4-16,86.0,69.8,52.4,61.0,56.4,52.0,98,68,33,29.92,29.73,15,4,23,0.18
2012-4-17,62.2,50.8,36.7,55.0,38.2,30.0,78,63,46,30.29,29.89,10,5,15,0.00
2012-4-18,55.3,39.6,26.9,33.0,28.9,24.0,91,69,37,30.35,30.10,5,1,12,0.00
2012-4-19,72.1,51.2,28.8,46.0,37.3,26.0,91,64,35,30.10,29.90,8,1,11,0.00
2012-4-20,77.4,61.9,41.9,51.0,44.5,40.0,94,59,30,29.94,29.69,13,4,22,0.00
2012-4-21,63.2,49.7,40.1,52.0,45.9,39.0,100,87,60,29.87,29.66,10,2,21,0.46
2012-4-22,47.6,41.1,36.9,41.0,38.0,35.0,97,89,75,29.89,29.65,11,2,16,0.36
2012-4-23,46.8,39.1,35.0,46.0,37.9,34.0,100,95,88,29.62,29.17,13,3,21,0.09
2012-4-24,46.5,39.5,35.4,37.0,33.3,30.0,91,79,57,29.60,29.25,19,4,21,0.02
2012-4-25,43.6,38.6,29.8,38.0,33.3,27.0,100,82,64,29.92,29.61,10,2,14,0.13
2012-4-26,52.5,40.7,25.9,46.0,35.9,24.0,96,84,52,29.91,29.56,11,3,21,0.18
2012-4-27,41.7,35.3,31.7,40.0,29.5,24.0,95,80,66,30.14,29.66,11,5,18,0.04
2012-4-28,47.4,35.4,25.1,26.0,19.6,8.0,80,55,26,30.26,30.14,8,2,14,0.00
2012-4-29,51.8,37.7,20.6,30.0,20.6,15.0,84,54,28,30.29,30.16,13,2,20,0.00
2012-4-30,59.8,44.6,23.4,41.0,26.5,20.0,87,53,29,30.34,30.05,11,2,13,0.02
2012-5-1,52.7,48.3,44.6,52.0,46.9,41.0,97,94,77,30.08,29.93,7,2,10,0.35
2012-5-2,60.2,52.9,47.1,55.0,49.9,46.0,97,89,80,30.09,29.99,10,3,15,0.07
2012-5-3,71.3,58.5,49.9,63.0,54.7,49.0,96,88,72,30.08,29.89,8,3,12,0.03
2012-5-4,70.4,63.5,55.7,64.0,59.2,54.0,98,86,72,29.95,29.87,9,2,10,0.58
2012-5-5,69.5,58.3,44.9,56.0,48.1,39.0,97,72,36,30.06,29.91,11,2,13,0.00
2012-5-6,71.4,53.7,34.6,47.0,37.5,29.0,94,60,21,30.10,30.01,6,1,15,0.00
2012-5-7,69.7,56.4,39.2,55.0,44.1,34.0,93,67,38,30.08,29.92,9,3,19,0.06
2012-5-8,58.5,53.8,49.7,58.0,52.4,48.0,98,95,92,29.92,29.73,9,2,12,1.79
2012-5-9,66.2,58.8,51.5,57.0,54.3,48.0,98,86,60,29.75,29.59,6,0,9,0.03
2012-5-10,51.2,46.3,41.9,49.0,43.5,40.0,96,90,77,29.80,29.53,10,3,15,0.02
2012-5-11,60.7,48.8,35.1,44.0,37.2,32.0,97,69,35,30.09,29.81,13,2,16,0.01
2012-5-12,75.7,56.3,32.4,52.0,43.0,31.0,97,65,35,30.19,30.09,5,1,12,0.00
2012-5-13,74.3,62.5,51.3,59.0,52.5,46.0,88,71,54,30.16,30.06,6,1,10,0.00
2012-5-14,66.0,60.2,54.0,60.0,56.0,52.0,95,87,69,30.09,30.01,7,1,11,0.00
2012-5-15,65.3,60.4,57.0,63.0,59.1,57.0,98,95,88,30.04,29.88,6,1,16,1.04
2012-5-16,77.5,60.9,47.3,63.0,54.5,41.0,99,81,47,30.00,29.73,10,1,11,0.08
2012-5-17,61.9,50.6,38.6,46.0,39.7,37.0,97,70,42,30.19,30.00,6,1,18,0.00
2012-5-18,72.0,53.2,33.0,48.0,39.7,32.0,97,66,28,30.25,30.12,4,1,9,0.00
2012-5-19,82.4,63.8,43.8,54.0,48.2,41.0,92,62,28,30.18,30.08,6,0,7,0.00
2012-5-20,83.4,68.0,47.8,60.0,53.0,46.0,94,63,36,30.21,30.12,11,2,15,0.00
2012-5-21,74.7,64.3,51.6,63.0,56.4,44.0,93,77,52,30.16,29.96,10,3,15,0.04
2012-5-22,73.7,64.6,57.9,65.0,61.7,57.0,98,91,69,29.96,29.79,7,1,11,0.26
2012-5-23,81.0,67.8,58.6,65.0,61.6,58.0,99,82,55,29.97,29.83,6,0,9,0.00
2012-5-24,77.7,68.4,59.2,67.0,62.3,57.0,94,81,65,30.10,29.98,12,3,15,0.00
2012-5-25,81.0,70.1,59.2,68.0,63.5,58.0,96,80,59,30.10,29.96,10,3,22,0.04
2012-5-26,80.2,70.9,55.0,66.0,57.4,46.0,97,66,34,30.13,30.01,8,0,8,0.05
2012-5-27,81.8,66.0,48.7,61.0,55.0,47.0,96,71,41,30.16,29.95,6,0,7,0.00
2012-5-28,85.7,71.6,55.0,74.0,64.5,54.0,95,79,61,29.99,29.77,6,1,29,0.03
2012-5-29,88.3,73.5,62.3,75.0,68.5,62.0,98,85,61,29.77,29.58,7,1,12,0.59
2012-5-30,76.2,65.1,50.6,66.0,57.5,48.0,99,79,45,29.77,29.68,4,0,8,0.01
2012-5-31,68.1,57.5,46.6,57.0,49.8,45.0,98,77,49,29.98,29.75,4,0,12,0.00
2012-6-1,63.8,56.3,42.2,57.0,50.7,41.0,96,82,63,30.00,29.73,17,4,26,0.14
2012-6-2,63.0,56.7,45.4,57.0,52.7,44.0,95,87,67,29.74,29.65,17,3,28,0.31
2012-6-3,64.8,54.0,43.7,57.0,50.1,43.0,98,87,70,29.74,29.62,4,0,13,0.07
2012-6-4,57.7,51.3,44.3,53.0,48.8,44.0,98,91,76,29.85,29.61,6,1,10,0.11
2012-6-5,67.4,54.1,42.2,54.0,47.6,41.0,97,81,50,29.95,29.85,7,1,9,0.00
2012-6-6,71.4,53.3,42.7,56.0,49.6,42.0,98,88,54,29.99,29.92,15,0,20,0.05
2012-6-7,70.4,56.6,45.1,60.0,51.5,44.0,98,84,56,29.99,29.90,6,0,7,0.02
2012-6-8,74.8,60.8,43.8,62.0,54.0,43.0,98,80,56,29.92,29.78,5,0,10,0.00
2012-6-9,69.0,59.9,49.8,62.0,57.3,49.0,97,91,77,29.96,29.81,2,0,4,0.03
2012-6-10,85.4,69.5,54.5,68.0,62.6,54.0,98,81,52,30.09,29.96,4,0,8,0.00
2012-6-11,85.1,72.6,60.3,73.0,65.2,59.0,97,79,62,30.12,30.02,11,2,16,0.00
2012-6-12,67.6,64.5,62.3,64.0,61.3,58.0,97,89,77,30.04,29.82,11,2,12,0.64
2012-6-13,71.9,60.6,52.1,63.0,54.9,49.0,97,82,56,30.15,29.85,8,1,17,0.03
2012-6-14,79.2,61.8,44.4,58.0,51.3,44.0,100,72,37,30.26,30.15,6,1,10,0.00
2012-6-15,81.9,65.1,45.2,64.0,53.5,44.0,97,69,41,30.30,30.20,6,0,8,0.00
2012-6-16,82.4,69.0,52.2,65.0,57.9,50.0,93,70,43,30.28,30.11,4,1,8,0.00
2012-6-17,78.2,69.2,58.7,63.0,57.4,53.0,90,67,47,30.13,29.93,10,3,16,0.00
2012-6-18,72.0,65.4,56.9,62.0,58.0,54.0,91,77,69,30.04,29.97,11,3,15,0.00
2012-6-19,85.9,71.5,58.2,74.0,65.8,56.0,95,82,66,30.06,29.94,5,1,11,0.10
2012-6-20,90.8,77.9,66.2,77.0,71.3,65.0,98,81,61,30.02,29.91,2,0,10,0.00
2012-6-21,90.7,77.6,62.6,74.0,68.4,61.0,97,75,50,29.93,29.74,3,0,12,0.00
2012-6-22,79.3,70.4,59.2,70.0,63.0,57.0,98,79,50,29.84,29.76,3,0,11,0.00
2012-6-23,76.7,62.4,54.3,64.0,58.7,53.0,97,88,60,30.01,29.84,9,0,10,0.47
2012-6-24,79.2,63.6,47.9,65.0,57.3,47.0,99,82,42,30.02,29.84,5,0,10,0.12
2012-6-25,69.4,59.5,51.9,63.0,56.5,48.0,99,90,70,29.83,29.69,6,0,17,0.28
2012-6-26,66.0,57.6,50.9,58.0,52.5,49.0,96,84,63,29.78,29.71,9,0,11,0.06
2012-6-27,75.1,63.9,52.2,56.0,53.8,50.0,94,72,47,29.79,29.69,6,1,12,0.00
2012-6-28,84.2,68.0,50.7,67.0,58.2,49.0,97,74,43,29.80,29.65,10,0,12,0.00
2012-6-29,83.7,72.5,62.4,71.0,63.0,56.0,98,75,39,29.66,29.59,6,1,12,0.24
2012-6-30,85.8,72.5,53.5,67.0,61.8,52.0,97,71,47,29.73,29.64,5,0,10,0.00
2012-7-1,82.6,70.7,56.9,67.0,60.8,55.0,96,73,52,29.86,29.73,4,0,9,0.00
2012-7-2,80.6,68.5,54.4,66.0,59.6,53.0,98,76,47,29.94,29.86,4,0,8,0.00
2012-7-3,84.8,70.6,53.5,68.0,59.9,52.0,98,72,39,29.95,29.75,4,0,8,0.01
2012-7-4,87.6,75.5,66.4,76.0,69.0,65.0,96,81,56,29.79,29.68,5,0,8,0.00
2012-7-5,81.4,71.8,60.4,69.0,63.7,58.0,95,77,59,29.88,29.72,5,0,10,0.00
2012-7-6,90.1,71.6,52.0,74.0,63.1,51.0,99,77,47,29.94,29.81,4,0,8,0.00
2012-7-7,75.4,68.9,62.1,69.0,65.1,60.0,95,88,74,29.86,29.80,6,0,9,0.03
2012-7-8,82.1,69.7,55.3,68.0,61.4,53.0,99,77,49,29.90,29.84,5,0,10,0.00
2012-7-9,79.4,64.8,51.0,59.0,52.1,47.0,97,68,37,29.99,29.90,10,1,16,0.00
2012-7-10,81.3,65.0,50.6,61.0,54.8,48.0,93,72,42,30.08,29.99,10,1,16,0.00
2012-7-11,86.1,68.1,49.1,62.0,53.3,48.0,98,65,28,30.17,30.09,6,0,9,0.00
2012-7-12,90.5,71.8,51.8,68.0,58.4,49.0,91,66,34,30.15,30.06,4,0,7,0.00
2012-7-13,90.9,73.9,56.7,69.0,60.6,54.0,95,67,32,30.16,30.07,3,0,9,0.00
2012-7-14,91.3,76.4,64.3,67.0,64.5,62.0,92,69,41,30.16,30.02,3,0,9,0.00
2012-7-15,78.6,72.0,64.0,75.0,67.9,62.0,96,87,68,30.08,29.88,5,0,8,0.54
2012-7-16,84.4,72.4,62.1,73.0,67.3,62.0,99,85,60,29.90,29.79,4,0,5,0.01
2012-7-17,94.1,78.6,63.1,72.0,68.1,62.0,98,73,46,29.81,29.62,11,1,14,0.00
2012-7-18,83.1,73.6,58.7,73.0,66.2,56.0,98,79,53,29.91,29.69,8,1,15,0.04
2012-7-19,79.6,66.5,53.2,61.0,55.9,52.0,97,72,44,29.99,29.91,8,1,12,0.00
2012-7-20,77.3,65.9,51.4,60.0,56.1,50.0,95,72,53,30.04,29.97,10,1,13,0.00
2012-7-21,84.0,68.9,56.7,65.0,58.2,54.0,98,73,37,30.09,29.98,7,0,7,0.00
2012-7-22,85.0,73.3,55.8,65.0,61.2,54.0,96,68,46,30.09,30.00,8,1,11,0.00
2012-7-23,91.4,75.6,63.4,73.0,67.3,61.0,96,77,47,30.01,29.67,8,1,35,0.96
2012-7-24,79.7,69.6,55.2,72.0,64.4,52.0,98,85,55,29.82,29.63,11,1,18,0.10
2012-7-25,79.9,66.0,51.6,61.0,56.0,50.0,95,73,43,29.93,29.74,4,0,9,0.01
2012-7-26,85.0,71.5,62.3,74.0,66.3,57.0,97,84,66,29.74,29.53,6,0,13,0.49
2012-7-27,80.9,71.2,63.9,70.0,66.8,63.0,98,87,58,29.87,29.61,4,0,8,0.92
2012-7-28,76.7,68.3,61.3,71.0,65.7,60.0,98,91,78,29.95,29.88,5,0,8,0.07
2012-7-29,85.0,70.8,58.0,67.0,62.2,56.0,98,77,43,30.01,29.94,4,0,9,0.00
2012-7-30,85.2,70.8,54.9,67.0,60.5,54.0,98,73,41,30.05,29.96,8,1,15,0.01
2012-7-31,82.3,73.2,64.9,69.0,66.1,63.0,97,79,59,29.99,29.82,11,2,15,0.30
2012-8-1,80.9,69.9,60.8,71.0,65.6,60.0,98,87,68,29.84,29.78,3,0,11,0.00
2012-8-2,85.6,71.5,57.7,69.0,64.3,57.0,99,81,47,29.88,29.82,4,0,9,0.01
2012-8-3,89.9,75.0,62.3,74.0,67.7,61.0,98,80,55,30.04,29.85,4,0,10,0.00
2012-8-4,91.9,78.8,65.9,75.0,68.8,65.0,98,74,44,30.12,30.02,11,2,17,0.00
2012-8-5,83.0,75.9,67.3,74.0,70.6,66.0,98,84,71,30.06,29.80,14,4,21,0.66
2012-8-6,75.5,66.7,53.9,68.0,59.5,53.0,98,79,58,30.04,29.93,4,0,10,0.00
2012-8-7,84.9,65.1,47.4,64.0,55.8,47.0,99,76,42,30.01,29.91,6,0,12,0.01
2012-8-8,87.3,70.5,52.8,67.0,60.5,51.0,96,74,42,29.96,29.87,7,0,11,0.00
2012-8-9,88.5,71.6,60.0,73.0,66.0,59.0,98,84,56,29.90,29.78,9,0,19,0.50
2012-8-10,73.4,68.0,63.3,70.0,66.0,63.0,98,93,87,29.86,29.71,8,2,14,0.75
2012-8-11,81.7,73.1,64.0,73.0,66.9,60.0,95,81,55,29.87,29.73,9,2,21,0.00
2012-8-12,75.6,66.1,57.9,67.0,61.2,56.0,96,85,67,29.93,29.85,3,0,9,0.11
2012-8-13,76.7,66.3,57.5,68.0,62.9,56.0,98,89,69,29.98,29.91,3,0,7,0.01
2012-8-14,79.1,66.7,56.3,67.0,61.4,55.0,97,84,57,29.95,29.82,8,1,12,1.34
2012-8-15,78.6,67.7,61.7,68.0,63.8,61.0,99,88,64,29.90,29.83,6,0,7,0.00
2012-8-16,80.0,66.7,55.1,67.0,61.7,53.0,98,85,58,29.94,29.82,4,0,10,0.00
2012-8-17,73.7,64.0,55.5,66.0,60.5,54.0,96,88,76,29.84,29.75,3,0,9,0.02
2012-8-18,73.6,60.8,47.5,58.0,53.1,45.0,98,78,44,29.97,29.84,3,0,5,0.00
2012-8-19,75.0,58.1,41.5,60.0,50.5,41.0,98,79,44,30.00,29.88,5,0,8,0.00
2012-8-20,74.1,62.0,49.7,61.0,56.2,49.0,97,82,59,29.93,29.83,3,0,8,0.00
2012-8-21,77.0,60.8,46.9,60.0,53.2,46.0,98,79,47,30.09,29.93,6,0,9,0.01
2012-8-22,81.2,62.6,46.4,62.0,53.5,45.0,97,76,43,30.14,30.06,7,0,10,0.00
2012-8-23,81.9,65.6,50.8,64.0,57.6,50.0,98,78,46,30.14,30.08,6,0,17,0.00
2012-8-24,86.2,67.1,51.4,67.0,58.4,50.0,98,77,43,30.18,30.12,3,0,9,0.00
2012-8-25,84.3,69.5,57.4,66.0,61.6,56.0,97,78,48,30.25,30.16,5,0,7,0.00
2012-8-26,83.6,71.4,58.3,65.0,61.2,57.0,97,73,45,30.28,30.13,9,1,11,0.00
2012-8-27,80.3,70.3,60.9,70.0,64.6,58.0,97,83,67,30.14,29.87,5,1,11,0.44
2012-8-28,77.1,69.1,59.3,69.0,63.4,50.0,99,83,59,29.94,29.81,6,1,10,0.20
2012-8-29,73.4,59.2,47.1,55.0,50.0,45.0,97,74,47,30.04,29.94,7,0,11,0.00
2012-8-30,79.1,60.6,41.9,64.0,53.8,41.0,98,80,57,30.09,29.98,10,0,10,0.00
2012-8-31,87.9,70.0,49.6,69.0,60.8,49.0,97,75,49,30.00,29.80,4,0,10,0.00
2012-9-1,80.8,69.9,57.4,68.0,61.9,54.0,98,78,48,30.05,29.90,5,0,12,0.00
2012-9-2,82.0,65.5,51.3,63.0,55.9,50.0,98,74,42,30.07,30.01,3,0,6,0.00
2012-9-3,75.4,65.6,53.0,66.0,59.7,51.0,95,82,69,30.11,30.03,8,1,10,0.12
2012-9-4,77.4,69.1,61.5,71.0,66.0,60.0,95,90,79,30.05,29.67,12,2,15,0.33
2012-9-5,81.7,69.0,59.4,70.0,64.5,58.0,98,87,58,29.83,29.67,9,0,12,0.33
2012-9-6,82.7,69.2,58.1,72.0,64.6,57.0,100,86,64,29.86,29.78,5,0,9,0.01
2012-9-7,81.5,69.3,58.0,68.0,62.0,57.0,98,80,48,29.93,29.74,6,0,9,0.00
2012-9-8,76.0,67.0,54.1,67.0,61.5,52.0,95,83,71,29.76,29.46,17,4,31,0.48
2012-9-9,69.4,57.7,47.3,59.0,51.7,46.0,98,82,55,29.94,29.74,4,0,8,0.01
2012-9-10,62.9,51.7,41.8,51.0,45.5,40.0,97,81,52,30.15,29.94,10,1,16,0.00
2012-9-11,70.5,51.8,35.5,53.0,44.2,35.0,97,78,46,30.28,30.15,4,0,8,0.01
2012-9-12,79.8,60.4,42.7,60.0,51.6,42.0,97,76,44,30.33,30.24,7,1,10,0.00
2012-9-13,85.2,64.8,48.1,65.0,56.4,47.0,98,77,48,30.31,30.20,3,0,8,0.00
2012-9-14,78.9,64.4,52.5,65.0,57.6,51.0,97,81,54,30.21,29.98,7,1,14,0.35
2012-9-15,66.3,56.6,49.9,56.0,51.5,47.0,97,84,58,30.15,30.08,4,0,7,0.00
2012-9-16,66.2,53.3,42.5,52.0,47.1,42.0,98,81,53,30.12,30.03,4,0,9,0.00
2012-9-17,75.0,59.1,42.5,59.0,50.5,42.0,98,76,44,30.07,29.92,9,1,12,0.01
2012-9-18,69.4,61.5,53.5,66.0,58.5,51.0,98,90,68,29.92,29.43,14,3,19,1.26
2012-9-19,60.7,51.0,38.6,52.0,44.5,37.0,97,81,48,30.20,29.73,6,0,10,0.01
2012-9-20,66.9,51.3,35.3,48.0,42.6,34.0,97,75,46,30.20,30.04,11,2,17,0.00
2012-9-21,69.2,60.3,49.6,61.0,55.0,46.0,92,83,71,30.05,29.90,11,2,16,0.00
2012-9-22,67.2,59.4,52.9,60.0,56.3,52.0,97,89,77,29.90,29.71,15,3,26,0.45
2012-9-23,60.3,50.0,37.7,52.0,44.4,36.0,97,83,49,30.11,29.85,7,0,13,0.03
2012-9-24,60.4,46.4,34.5,47.0,40.1,34.0,98,81,49,30.17,30.03,6,1,10,0.01
2012-9-25,69.9,55.7,38.0,50.0,42.4,36.0,93,64,39,30.06,30.00,12,2,14,0.02
2012-9-26,65.6,58.9,53.2,60.0,56.3,50.0,97,91,81,30.04,29.95,6,1,12,0.40
2012-9-27,64.5,54.5,43.1,59.0,46.8,40.0,97,78,41,30.22,30.03,7,1,13,0.00
2012-9-28,54.1,50.1,43.2,52.0,48.1,41.0,98,93,85,30.19,30.00,7,1,11,0.13
2012-9-29,59.6,53.6,50.0,53.0,50.3,48.0,98,89,70,30.01,29.89,8,2,12,0.03
2012-9-30,55.8,51.5,49.6,54.0,50.4,49.0,98,96,88,29.90,29.73,3,0,6,0.30
2012-10-1,64.6,53.9,47.8,57.0,51.7,47.0,99,92,69,29.94,29.68,6,1,12,0.24
2012-10-2,63.2,55.1,46.3,58.0,53.3,46.0,98,94,80,30.00,29.93,6,0,9,0.03
2012-10-3,66.7,61.7,57.2,65.0,60.9,56.0,98,97,93,30.10,29.97,5,0,7,0.23
2012-10-4,68.6,60.7,50.4,62.0,58.9,50.0,99,94,72,30.12,30.02,3,0,4,0.00
2012-10-5,70.2,58.5,45.7,63.0,55.2,45.0,99,89,70,30.03,29.86,7,0,8,0.01
2012-10-6,58.9,52.0,42.5,57.0,48.6,35.0,98,89,64,29.99,29.71,5,0,10,0.18
2012-10-7,50.5,44.6,39.7,43.0,40.1,35.0,96,84,70,30.08,29.99,7,0,7,0.23
2012-10-8,51.5,43.8,35.5,43.0,39.6,34.0,97,86,59,30.26,30.07,5,0,8,0.04
2012-10-9,56.8,45.1,31.3,48.0,40.4,30.0,98,85,64,30.26,30.05,11,2,12,0.01
2012-10-10,56.7,48.8,40.5,52.0,45.8,37.0,96,90,73,30.04,29.75,6,1,12,0.12
2012-10-11,51.3,42.5,37.1,40.0,36.3,32.0,96,81,50,30.15,29.89,8,2,14,0.37
2012-10-12,49.0,37.9,24.9,43.0,30.1,22.0,96,75,47,30.42,30.00,14,1,16,0.18
2012-10-13,49.9,36.7,21.4,37.0,27.4,20.0,96,72,39,30.49,30.13,10,1,12,0.04
2012-10-14,66.8,51.3,39.8,59.0,48.1,37.0,98,89,73,30.15,29.77,6,1,16,1.23
2012-10-15,64.4,58.5,46.7,58.0,51.0,38.0,85,76,63,29.77,29.59,11,3,18,0.03
2012-10-16,47.6,42.0,33.1,40.0,36.6,31.0,96,81,68,29.93,29.69,7,1,12,0.04
2012-10-17,61.6,45.1,29.9,44.0,37.6,29.0,97,78,46,30.00,29.87,5,1,10,0.00
2012-10-18,64.2,53.1,41.0,50.0,43.6,37.0,88,71,51,29.95,29.85,17,4,22,0.00
2012-10-19,60.9,56.3,51.8,59.0,54.6,47.0,98,94,71,29.88,29.58,13,2,17,0.77
2012-10-20,57.8,51.5,43.4,57.0,46.4,40.0,98,83,58,29.74,29.59,7,1,11,0.21
2012-10-21,56.4,49.8,44.7,48.0,44.2,40.0,96,82,63,29.98,29.74,9,2,14,0.08
2012-10-22,60.4,49.8,38.3,49.0,44.3,36.0,97,83,56,30.09,29.97,10,2,14,0.00
2012-10-23,54.8,46.1,36.3,51.0,44.2,35.0,98,93,83,30.14,30.06,5,0,8,0.03
2012-10-24,51.2,50.1,48.9,48.0,44.6,41.0,92,81,72,30.17,30.09,9,2,12,0.00
2012-10-25,67.1,56.2,50.5,58.0,51.5,46.0,93,85,72,30.20,30.11,9,2,11,0.00
2012-10-26,66.5,58.8,54.4,58.0,54.6,52.0,93,86,72,30.15,30.06,7,2,12,0.00
2012-10-27,64.7,58.1,51.4,56.0,53.0,49.0,93,83,69,30.07,29.92,8,1,12,0.00
2012-10-28,55.4,48.5,44.5,52.0,46.6,43.0,98,93,83,29.98,29.82,7,1,8,0.00
2012-10-29,60.3,51.2,44.3,53.0,47.2,43.0,96,86,71,29.82,29.05,33,7,38,0.00
2012-10-30,59.5,56.0,51.4,55.0,48.6,44.0,89,76,66,29.41,29.09,23,10,34,0.12
2012-10-31,51.8,43.3,40.2,46.0,39.9,37.0,96,87,76,29.49,29.37,9,1,18,0.15
2012-11-1,42.8,41.3,39.5,42.0,39.3,37.0,96,93,87,29.56,29.45,8,2,14,0.21
2012-11-2,39.3,37.6,35.7,38.0,36.3,35.0,97,95,90,29.76,29.56,9,2,12,0.18
2012-11-3,39.7,36.1,33.3,36.0,33.7,32.0,97,91,76,29.98,29.77,11,2,18,0.00
2012-11-4,37.8,34.5,31.5,33.0,30.1,26.0,93,84,76,30.06,29.98,9,2,15,0.00
2012-11-5,35.1,31.6,24.0,27.0,22.1,18.0,85,69,55,30.19,30.04,12,2,15,0.00
2012-11-6,38.5,28.6,20.6,23.0,20.2,16.0,90,72,48,30.24,30.12,7,1,8,0.00
2012-11-7,38.6,29.2,18.5,24.0,20.3,15.0,87,71,53,30.16,30.00,4,1,8,0.00
2012-11-8,37.2,30.1,23.7,26.0,22.9,20.0,89,75,62,30.06,29.96,8,2,12,0.00
2012-11-9,41.4,32.9,19.5,37.0,28.6,17.0,95,84,65,30.19,30.03,6,1,11,0.01
2012-11-10,49.1,43.3,38.0,40.0,38.4,36.0,95,83,68,30.33,30.18,5,0,13,0.00
2012-11-11,68.7,52.1,42.5,49.0,43.0,38.0,94,73,44,30.36,30.29,9,2,10,0.20
2012-11-12,65.8,57.3,43.9,53.0,46.3,38.0,93,67,56,30.32,29.97,17,6,25,0.28
2012-11-13,44.3,36.4,30.4,42.0,32.4,26.0,96,86,68,30.51,30.14,8,2,16,0.35
2012-11-14,42.6,30.3,23.1,29.0,23.5,20.0,93,78,47,30.62,30.50,4,0,8,0.00
2012-11-15,41.3,27.5,20.7,28.0,22.4,19.0,93,82,51,30.51,30.34,3,0,7,0.00
2012-11-16,44.6,29.1,18.3,29.0,23.4,16.0,95,81,46,30.52,30.35,4,0,9,0.01
2012-11-17,46.0,29.9,20.4,34.0,25.9,19.0,95,85,61,30.69,30.52,3,0,6,0.00
2012-11-18,46.2,31.2,19.8,33.0,25.7,18.0,96,82,57,30.71,30.57,5,0,10,0.01
2012-11-19,49.3,32.1,23.1,33.0,24.9,20.0,91,77,39,30.58,30.27,5,0,7,0.00
2012-11-20,48.0,33.8,24.4,34.0,27.7,22.0,90,79,54,30.27,30.14,2,0,5,0.00
2012-11-21,51.7,35.1,25.1,33.0,27.2,22.0,92,76,43,30.26,30.17,4,0,6,0.00
2012-11-22,59.1,36.9,24.0,34.0,27.3,22.0,93,72,31,30.26,30.04,3,0,6,0.00
2012-11-23,55.4,41.5,28.9,43.0,33.1,24.0,90,74,44,30.04,29.65,11,3,18,0.22
2012-11-24,36.7,29.8,26.0,30.0,24.8,22.0,95,81,69,29.81,29.65,11,5,19,0.05
2012-11-25,28.7,26.9,24.3,28.0,23.4,18.0,96,87,73,29.87,29.80,6,1,11,0.01
2012-11-26,35.7,30.7,25.3,31.0,28.0,23.0,96,90,78,30.22,29.85,8,1,11,0.03
2012-11-27,35.7,30.0,24.5,26.0,24.5,22.0,91,80,63,30.30,30.21,5,0,8,0.00
2012-11-28,34.0,30.1,27.4,29.0,26.1,22.0,96,85,63,30.25,30.15,11,1,11,0.00
2012-11-29,40.6,33.1,27.2,32.0,28.3,25.0,96,83,64,30.26,30.16,10,1,16,0.09
2012-11-30,28.9,24.4,22.1,25.0,18.3,15.0,86,77,68,30.48,30.27,15,4,16,0.00
2012-12-1,33.3,27.4,21.8,32.0,24.3,18.0,93,88,83,30.50,30.34,14,6,16,0.00
2012-12-2,48.0,41.4,33.4,48.0,39.6,32.0,98,93,85,30.34,29.98,7,1,12,0.77
2012-12-3,48.4,41.5,34.4,48.0,40.0,33.0,98,94,87,30.23,30.02,10,1,13,0.00
2012-12-4,62.6,51.2,38.2,55.0,47.2,38.0,97,87,72,30.18,29.87,16,4,22,0.22
2012-12-5,46.9,35.6,24.0,46.0,31.0,16.0,97,84,67,30.30,29.92,9,3,18,0.38
2012-12-6,33.1,24.8,16.7,21.0,17.3,13.0,88,74,60,30.42,30.17,8,1,11,0.00
2012-12-7,37.5,31.8,27.8,33.0,26.5,19.0,96,81,66,30.16,30.01,7,2,11,0.08
2012-12-8,43.6,37.8,31.6,43.0,36.8,31.0,98,96,93,30.05,29.79,7,1,15,0.09
2012-12-9,39.7,35.5,29.6,38.0,31.5,28.0,96,86,75,30.28,29.93,10,3,23,0.15
2012-12-10,52.0,41.9,35.6,50.0,40.6,34.0,98,95,91,29.92,29.49,10,3,17,1.15
2012-12-11,36.2,30.2,26.9,35.0,27.3,23.0,97,89,77,30.20,29.64,7,1,14,0.01
2012-12-12,38.6,30.1,24.2,30.0,25.7,23.0,95,84,60,30.42,30.20,6,0,10,0.00
2012-12-13,40.7,30.5,23.3,31.0,26.6,22.0,96,86,66,30.46,30.27,3,0,6,0.00
2012-12-14,39.8,31.8,20.6,33.0,27.6,19.0,92,85,64,30.26,30.15,7,1,11,0.00
2012-12-15,40.0,33.0,26.9,33.0,26.4,22.0,93,78,61,30.32,30.16,12,2,18,0.00
2012-12-16,33.7,32.2,29.5,32.0,28.4,22.0,95,86,72,30.15,29.89,13,7,19,0.15
2012-12-17,38.6,35.8,33.1,37.0,34.3,31.0,99,94,92,29.89,29.68,12,6,18,0.30
2012-12-18,41.6,38.5,33.9,41.0,37.3,33.0,97,95,93,29.65,29.42,15,4,21,0.60
2012-12-19,38.3,34.3,29.2,34.0,30.6,22.0,97,86,71,30.17,29.61,9,3,13,0.03
2012-12-20,34.7,29.3,19.4,32.0,24.6,17.0,95,82,73,30.23,29.70,22,5,29,0.03
2012-12-21,37.6,33.8,31.6,36.0,32.2,31.0,97,94,90,29.68,29.09,29,7,35,1.11
2012-12-22,32.5,25.9,23.5,31.0,23.2,20.0,96,89,80,29.81,29.16,12,6,21,0.01
2012-12-23,32.5,27.8,24.6,28.0,25.0,21.0,94,89,76,29.93,29.78,9,2,13,0.03
2012-12-24,30.5,26.1,20.4,25.0,21.6,18.0,92,83,74,30.08,29.93,8,1,10,0.05
2012-12-25,28.9,22.7,11.1,24.0,19.5,9.0,94,88,78,30.36,29.94,11,2,11,0.00
2012-12-26,25.9,17.3,3.9,25.0,14.6,1.0,95,89,80,30.39,29.79,8,1,12,0.00
2012-12-27,28.0,22.9,18.9,26.0,21.4,17.0,100,94,90,29.94,29.62,13,3,19,0.00
2012-12-28,25.1,23.2,19.9,24.0,22.0,19.0,96,95,93,30.12,29.95,5,1,8,0.00
2012-12-29,26.2,24.6,19.0,25.0,23.6,17.0,96,95,93,30.06,29.63,7,1,9,0.00
2012-12-30,19.5,15.9,11.9,16.0,12.9,10.0,93,88,79,30.22,29.71,13,2,15,0.00
2012-12-31,32.5,26.5,17.3,27.0,22.0,15.0,94,83,67,30.17,29.79,8,2,12,0.06
2013-1-1,31.6,19.7,4.1,28.0,14.7,2.0,94,81,65,30.01,29.78,10,3,16,0.00